Time;durP1;ratioP1;P1;durP2;ratioP2;P2;SDS_P1;SDS_P2;PMS_P1;PMS_P2;Temp;Humidity;BMP_temperature;BMP_pressure;BME280_temperature;BME280_humidity;BME280_pressure;Samples;Min_cycle;Max_cycle;Signal;HPM_P1;HPM_P2
2021/12/17 00:01:17;;;;;;;11.57;6.57;;;;;;;4.65;69.01;97639.13;5046646;28;20199;-67
2021/12/17 00:04:02;;;;;;;9.50;6.50;;;;;;;4.62;70.31;97638.28;5044125;28;20233;-67
2021/12/17 00:06:41;;;;;;;10.07;6.50;;;;;;;4.66;69.01;97639.94;5046373;28;20204;-68
2021/12/17 00:09:09;;;;;;;12.53;7.17;;;;;;;4.52;69.16;97632.44;5046107;28;20206;-67
2021/12/17 00:11:36;;;;;;;167.77;67.93;;;;;;;4.52;69.45;97629.88;5049721;28;20202;-66
2021/12/17 00:14:03;;;;;;;32.87;18.00;;;;;;;4.48;70.07;97624.81;5050281;28;20221;-68
2021/12/17 00:16:36;;;;;;;15.20;8.60;;;;;;;4.49;69.82;97627.34;5049726;28;20210;-68
2021/12/17 00:19:20;;;;;;;12.30;8.07;;;;;;;4.47;69.98;97618.81;5050128;28;20599;-69
2021/12/17 00:44:16;;;;;;;11.00;6.87;;;;;;;4.17;69.95;97638.84;5049570;28;20234;-68
2021/12/17 00:49:36;;;;;;;9.40;5.33;;;;;;;3.61;68.73;97553.22;5048196;28;20240;-67
2021/12/17 00:52:04;;;;;;;7.43;5.13;;;;;;;4.18;67.66;97645.69;5049318;28;20288;-68
2021/12/17 00:54:40;;;;;;;8.10;4.00;;;;;;;4.24;67.32;97654.16;5049220;28;20277;-65
2021/12/17 00:57:19;;;;;;;7.63;4.30;;;;;;;4.25;67.66;97637.91;5049634;28;20247;-68
2021/12/17 00:59:50;;;;;;;7.13;4.67;;;;;;;4.27;67.98;97658.38;5049030;28;20646;-67
2021/12/17 01:02:21;;;;;;;8.07;5.10;;;;;;;4.23;68.00;97649.88;5048068;28;20639;-66
2021/12/17 01:04:51;;;;;;;8.93;5.33;;;;;;;4.24;67.58;97649.03;5048894;28;20310;-68
2021/12/17 01:07:21;;;;;;;10.53;5.50;;;;;;;4.24;68.07;97658.44;5047563;28;20196;-67
2021/12/17 01:09:50;;;;;;;7.97;4.90;;;;;;;4.28;68.49;97644.72;5047848;28;20626;-68
2021/12/17 01:12:19;;;;;;;9.93;5.87;;;;;;;4.23;68.11;97641.34;5030727;28;21003;-66
2021/12/17 01:15:07;;;;;;;10.40;5.23;;;;;;;4.22;68.13;97647.34;5047912;28;20208;-68
2021/12/17 01:18:13;;;;;;;7.43;4.67;;;;;;;4.25;68.05;97637.91;5047669;28;20194;-69
2021/12/17 01:21:22;;;;;;;7.40;4.93;;;;;;;4.27;68.17;97637.88;5046533;28;20197;-68
2021/12/17 01:24:15;;;;;;;7.87;4.60;;;;;;;4.25;68.08;97634.47;5047539;28;20330;-67
2021/12/17 01:35:59;;;;;;;10.00;5.33;;;;;;;4.22;67.56;97619.16;5049061;28;20203;-68
2021/12/17 01:40:13;;;;;;;6.27;4.50;;;;;;;4.29;68.61;97639.56;5046823;28;20619;-66
2021/12/17 01:44:07;;;;;;;11.17;5.30;;;;;;;4.20;69.27;97608.91;5048087;28;20321;-67
2021/12/17 01:46:37;;;;;;;8.43;5.40;;;;;;;4.23;69.95;97614.00;5046799;28;20209;-68
2021/12/17 02:00:05;;;;;;;8.97;5.47;;;;;;;4.24;69.59;97602.03;5046665;28;20609;-70
2021/12/17 02:02:46;;;;;;;9.43;5.33;;;;;;;4.27;68.96;97595.16;5048218;28;20271;-69
2021/12/17 02:05:20;;;;;;;8.60;5.43;;;;;;;4.30;69.28;97600.25;5046451;28;20225;-69
2021/12/17 02:07:51;;;;;;;8.00;4.60;;;;;;;4.34;68.69;97598.50;5046459;28;20190;-68
2021/12/17 02:11:11;;;;;;;12.07;5.33;;;;;;;4.36;68.56;97589.91;5048178;28;20194;-70
2021/12/17 02:19:30;;;;;;;8.23;4.97;;;;;;;4.39;68.45;97595.00;5046521;28;20206;-68
2021/12/17 02:32:28;;;;;;;8.00;4.77;;;;;;;4.54;67.04;97571.72;5029527;28;20200;-69
2021/12/17 02:37:28;;;;;;;7.97;4.87;;;;;;;4.59;66.63;97580.22;5047477;28;20219;-70
2021/12/17 02:46:24;;;;;;;7.87;4.73;;;;;;;4.55;67.43;97583.69;5045942;28;20281;-69
2021/12/17 02:48:54;;;;;;;8.03;4.73;;;;;;;4.54;67.21;97569.16;5046027;28;20237;-68
2021/12/17 02:51:23;;;;;;;10.27;5.57;;;;;;;4.57;67.35;97581.97;5045400;28;20677;-65
2021/12/17 02:53:52;;;;;;;6.10;4.27;;;;;;;4.62;66.31;97585.28;5047428;28;20190;-68
2021/12/17 02:56:21;;;;;;;7.97;4.80;;;;;;;4.71;65.48;97582.59;5045482;28;20247;-67
2021/12/17 02:58:49;;;;;;;7.17;4.40;;;;;;;4.72;65.90;97568.03;5046950;28;20230;-67
2021/12/17 03:01:17;;;;;;;7.40;4.23;;;;;;;4.74;64.90;97551.75;5047170;28;20193;-68
2021/12/17 03:03:48;;;;;;;7.07;4.10;;;;;;;4.78;65.14;97557.72;5046733;28;20312;-67
2021/12/17 03:06:15;;;;;;;6.33;4.20;;;;;;;4.80;64.80;97550.84;5045836;28;20622;-70
2021/12/17 03:08:46;;;;;;;8.00;4.97;;;;;;;4.82;65.20;97554.22;5046466;28;20187;-68
2021/12/17 03:11:15;;;;;;;8.13;4.90;;;;;;;4.81;65.02;97548.25;5046100;28;20243;-70
2021/12/17 03:13:44;;;;;;;7.63;4.37;;;;;;;4.82;64.47;97552.50;5046533;28;20241;-69
2021/12/17 03:16:26;;;;;;;6.03;3.83;;;;;;;4.83;64.90;97551.63;5046770;28;20321;-67
2021/12/17 03:24:07;;;;;;;5.50;3.77;;;;;;;4.81;64.48;97557.66;5046849;28;20612;-69
2021/12/17 03:26:35;;;;;;;7.40;5.10;;;;;;;4.75;64.57;97558.59;5046408;28;20203;-66
2021/12/17 03:29:07;;;;;;;7.70;4.60;;;;;;;4.72;64.58;97562.91;5045258;28;20694;-67
2021/12/17 03:31:41;;;;;;;5.13;3.70;;;;;;;4.72;64.80;97570.59;5045347;28;20674;-70
2021/12/17 03:34:27;;;;;;;9.57;4.70;;;;;;;4.69;64.60;97568.09;5044955;28;20194;-69
2021/12/17 03:36:57;;;;;;;6.27;4.60;;;;;;;4.69;64.62;97565.53;5045665;28;20196;-70
2021/12/17 03:39:30;;;;;;;7.90;4.30;;;;;;;4.64;65.69;97563.03;5045158;28;20634;-66
2021/12/17 03:42:00;;;;;;;6.70;4.23;;;;;;;4.59;65.73;97567.41;5045069;28;20691;-67
2021/12/17 03:44:38;;;;;;;6.93;3.97;;;;;;;4.53;65.63;97556.38;5045564;28;20225;-68
2021/12/17 03:47:13;;;;;;;8.40;3.97;;;;;;;4.52;65.34;97550.38;5048864;28;20203;-64
2021/12/17 03:49:49;;;;;;;6.20;4.00;;;;;;;4.56;65.08;97552.03;5049622;28;20235;-67
2021/12/17 03:52:17;;;;;;;5.60;3.23;;;;;;;4.61;65.91;97555.41;5050218;28;20621;-67
2021/12/17 03:54:46;;;;;;;7.07;4.23;;;;;;;4.61;65.25;97547.69;5049103;28;20206;-67
2021/12/17 03:57:18;;;;;;;6.53;4.07;;;;;;;4.64;65.51;97544.22;5049014;28;20207;-68
2021/12/17 03:59:51;;;;;;;5.77;3.80;;;;;;;4.65;65.46;97531.41;5048855;28;20669;-69
2021/12/17 04:02:24;;;;;;;6.30;3.83;;;;;;;4.68;64.80;97531.34;5050693;28;20222;-67
2021/12/17 04:04:51;;;;;;;8.37;4.50;;;;;;;4.73;64.38;97529.56;5048461;28;20244;-69
2021/12/17 04:07:33;;;;;;;4.57;3.67;;;;;;;4.76;64.71;97538.94;5050317;28;20227;-68
2021/12/17 04:10:38;;;;;;;6.70;4.17;;;;;;;4.79;64.33;97526.91;5050185;28;20758;-69
2021/12/17 04:15:58;;;;;;;6.37;4.43;;;;;;;4.74;64.36;97528.66;5048943;28;20210;-70
2021/12/17 04:18:26;;;;;;;7.80;4.50;;;;;;;4.82;64.94;97538.84;5048844;28;20703;-69
2021/12/17 04:20:54;;;;;;;10.53;5.37;;;;;;;4.82;64.51;97534.53;5049692;28;20301;-68
2021/12/17 04:23:22;;;;;;;12.73;5.60;;;;;;;4.88;65.04;97538.75;5060669;28;20640;-68
2021/12/17 04:25:50;;;;;;;8.73;5.30;;;;;;;4.91;64.73;97529.28;5048244;28;20926;-70
2021/12/17 04:28:18;;;;;;;7.47;5.00;;;;;;;4.81;65.64;97534.56;5050340;28;20195;-70
2021/12/17 04:30:46;;;;;;;8.40;4.83;;;;;;;4.75;65.39;97532.09;5071959;28;20225;-69
2021/12/17 04:33:13;;;;;;;10.73;5.67;;;;;;;4.79;65.64;97539.72;5068423;28;20183;-67
2021/12/17 04:35:41;;;;;;;10.50;6.33;;;;;;;4.68;66.24;97543.31;5058621;28;20212;-67
2021/12/17 04:38:11;;;;;;;10.17;5.43;;;;;;;4.62;66.08;97546.81;5069174;28;20186;-67
2021/12/17 04:40:42;;;;;;;10.07;5.67;;;;;;;4.47;67.19;97534.19;5068364;28;20288;-67
2021/12/17 04:43:17;;;;;;;8.33;4.73;;;;;;;4.55;66.73;97550.34;5050850;28;20246;-69
2021/12/17 04:59:44;;;;;;;8.60;5.03;;;;;;;4.48;66.81;97546.16;5067500;28;20206;-70
2021/12/17 05:02:11;;;;;;;8.47;5.07;;;;;;;4.50;67.23;97541.00;5067566;28;20200;-70
2021/12/17 05:04:49;;;;;;;7.10;4.30;;;;;;;4.58;66.67;97542.59;5061423;28;20269;-70
2021/12/17 05:07:16;;;;;;;6.43;4.13;;;;;;;4.58;66.15;97536.63;5053186;28;20590;-65
2021/12/17 05:09:58;;;;;;;5.03;3.93;;;;;;;4.67;67.02;97546.75;5047381;28;20190;-70
2021/12/17 05:20:53;;;;;;;8.53;5.53;;;;;;;4.77;66.50;97500.44;5067597;28;20302;-67
2021/12/17 05:23:25;;;;;;;6.37;3.70;;;;;;;4.83;64.70;97500.31;5067491;28;20189;-69
2021/12/17 05:25:54;;;;;;;5.93;3.87;;;;;;;4.88;65.34;97500.25;5067298;28;20225;-69
2021/12/17 05:28:27;;;;;;;5.77;4.10;;;;;;;4.82;64.86;97483.22;5064443;28;20205;-68
2021/12/17 05:30:56;;;;;;;6.83;3.67;;;;;;;4.91;64.47;97503.63;5046892;28;20198;-70
2021/12/17 05:33:25;;;;;;;6.17;4.53;;;;;;;4.96;63.79;97506.09;5047611;28;20269;-67
2021/12/17 05:35:54;;;;;;;6.23;4.23;;;;;;;5.00;63.83;97497.47;5048766;28;20226;-63
2021/12/17 05:38:23;;;;;;;8.60;4.80;;;;;;;5.02;64.00;97492.31;5063906;28;20274;-63
2021/12/17 05:40:51;;;;;;;6.47;4.20;;;;;;;5.09;63.87;97486.22;5047178;28;20701;-63
2021/12/17 05:43:20;;;;;;;5.10;3.63;;;;;;;5.07;63.06;97493.94;5046622;28;20240;-64
2021/12/17 05:48:27;;;;;;;6.27;4.37;;;;;;;5.02;63.34;97493.19;5046383;28;20202;-66
2021/12/17 05:50:59;;;;;;;6.00;3.50;;;;;;;5.08;62.43;97499.91;5048503;28;20277;-68
2021/12/17 05:53:31;;;;;;;9.23;3.83;;;;;;;5.13;63.39;97498.13;5046896;28;20266;-69
2021/12/17 05:56:01;;;;;;;4.20;3.20;;;;;;;5.16;62.02;97501.47;5046551;28;20194;-66
2021/12/17 05:58:39;;;;;;;5.83;3.73;;;;;;;5.15;61.92;97493.81;5046963;28;20256;-68
2021/12/17 06:01:07;;;;;;;5.90;3.40;;;;;;;5.19;62.18;97509.16;5046161;28;20200;-69
2021/12/17 06:03:44;;;;;;;4.93;3.60;;;;;;;5.23;61.22;97512.50;5046431;28;20189;-69
2021/12/17 06:06:12;;;;;;;6.80;3.93;;;;;;;5.13;61.88;97490.44;5063024;28;20216;-69
2021/12/17 06:08:40;;;;;;;6.27;3.70;;;;;;;5.27;61.86;97514.13;5045861;28;20190;-71
2021/12/17 06:11:07;;;;;;;5.93;3.90;;;;;;;5.24;62.18;97511.59;5048099;28;20677;-71
2021/12/17 06:13:34;;;;;;;6.03;3.77;;;;;;;5.22;62.63;97518.50;5046300;28;20224;-69
2021/12/17 06:16:02;;;;;;;11.10;6.57;;;;;;;5.18;64.50;97519.41;5063286;28;20192;-71
2021/12/17 06:18:30;;;;;;;8.93;6.33;;;;;;;4.96;66.89;97521.50;5029260;28;20667;-70
2021/12/17 06:20:57;;;;;;;12.13;7.13;;;;;;;4.82;67.77;97529.41;5046274;28;20229;-67
2021/12/17 06:23:24;;;;;;;11.13;7.80;;;;;;;4.75;68.56;97522.69;5045819;28;20689;-69
2021/12/17 06:25:52;;;;;;;12.70;7.40;;;;;;;4.68;68.60;97535.59;5045950;28;20310;-70
2021/12/17 06:28:19;;;;;;;13.17;8.13;;;;;;;4.65;68.97;97539.09;5046330;28;20187;-68
2021/12/17 06:30:49;;;;;;;12.13;7.70;;;;;;;4.62;68.90;97528.00;5045813;28;20195;-69
2021/12/17 06:33:26;;;;;;;14.17;7.93;;;;;;;4.73;68.68;97536.41;5046672;28;20268;-68
2021/12/17 06:35:53;;;;;;;16.87;7.93;;;;;;;4.72;69.11;97540.69;5045701;28;20189;-68
2021/12/17 06:38:20;;;;;;;19.90;8.50;;;;;;;4.72;68.90;97520.16;5062907;28;20270;-70
2021/12/17 06:40:48;;;;;;;10.30;7.17;;;;;;;4.70;69.04;97526.16;5045933;28;20205;-68
2021/12/17 06:43:17;;;;;;;12.23;7.77;;;;;;;4.69;68.37;97522.78;5062452;28;20235;-68
2021/12/17 06:46:01;;;;;;;11.43;6.60;;;;;;;4.72;68.53;97530.41;5045968;28;20234;-66
2021/12/17 06:48:31;;;;;;;12.97;7.80;;;;;;;4.74;68.18;97538.94;5062065;28;20194;-69
2021/12/17 06:59:45;;;;;;;7.80;5.20;;;;;;;4.88;67.92;97537.00;5047157;28;20697;-63
2021/12/17 07:17:27;;;;;;;8.67;5.60;;;;;;;5.42;66.72;97534.41;5044880;28;20662;-71
2021/12/17 07:28:48;;;;;;;17.20;9.53;;;;;;;5.27;67.43;97529.53;5061457;28;20506;-69
2021/12/17 07:33:58;;;;;;;18.03;11.17;;;;;;;5.12;67.62;97512.69;5045168;28;20195;-68
2021/12/17 07:39:22;;;;;;;18.10;9.97;;;;;;;5.20;67.65;97518.53;5044768;28;20247;-71
2021/12/17 07:42:02;;;;;;;23.30;14.53;;;;;;;5.25;67.55;97513.31;5061690;28;20334;-70
2021/12/17 07:44:42;;;;;;;23.30;13.03;;;;;;;5.24;67.49;97515.03;5027696;28;20203;-68
2021/12/17 07:47:24;;;;;;;21.30;11.47;;;;;;;5.35;67.35;97512.28;5044473;28;20183;-68
2021/12/17 07:50:10;;;;;;;17.80;11.37;;;;;;;5.42;68.44;97521.59;5046050;28;20190;-70
2021/12/17 07:52:57;;;;;;;21.80;12.23;;;;;;;5.52;68.58;97515.41;5043787;28;20202;-70
2021/12/17 07:55:26;;;;;;;21.80;15.00;;;;;;;5.48;69.00;97518.91;5044716;28;20205;-70
2021/12/17 07:57:55;;;;;;;18.30;11.17;;;;;;;5.48;68.40;97517.16;5044323;28;20700;-73
2021/12/17 08:00:29;;;;;;;21.30;11.00;;;;;;;5.52;67.24;97502.56;5043830;28;20197;-71
2021/12/17 08:03:01;;;;;;;16.77;10.33;;;;;;;5.60;68.78;97523.81;5045944;28;20291;-71
2021/12/17 08:05:50;;;;;;;19.67;10.17;;;;;;;5.67;67.93;97523.66;5043933;28;20301;-70
2021/12/17 08:08:18;;;;;;;20.90;10.87;;;;;;;5.70;67.19;97523.59;5044673;28;20578;-71
2021/12/17 08:10:55;;;;;;;18.30;9.33;;;;;;;5.75;67.30;97520.94;5029171;28;20277;-71
2021/12/17 08:13:26;;;;;;;22.93;12.30;;;;;;;5.81;66.51;97510.56;5044075;28;20251;-70
2021/12/17 08:24:43;;;;;;;21.37;12.33;;;;;;;6.04;67.24;97513.53;5060451;28;20575;-71
2021/12/17 08:32:08;;;;;;;17.17;10.57;;;;;;;6.02;66.91;97524.75;5063133;28;20209;-72
2021/12/17 08:34:45;;;;;;;23.80;15.30;;;;;;;6.01;66.66;97512.75;5047495;28;20196;-70
2021/12/17 08:37:14;;;;;;;19.00;12.17;;;;;;;6.15;68.16;97514.16;5063448;28;20198;-71
2021/12/17 08:39:45;;;;;;;18.97;11.40;;;;;;;6.30;66.82;97511.28;5047698;28;20271;-67
2021/12/17 08:42:26;;;;;;;23.47;11.03;;;;;;;6.39;66.80;97512.78;5047979;28;20273;-70
2021/12/17 08:44:55;;;;;;;19.50;11.67;;;;;;;6.40;67.37;97494.75;5047008;28;20253;-71
2021/12/17 08:47:43;;;;;;;17.63;11.37;;;;;;;6.36;66.72;97494.84;5047225;28;20230;-71
2021/12/17 08:50:14;;;;;;;17.03;10.67;;;;;;;6.49;67.38;97489.41;5047070;28;20191;-73
2021/12/17 08:52:42;;;;;;;18.97;10.57;;;;;;;6.44;64.92;97474.97;5048467;28;20195;-71
2021/12/17 08:55:10;;;;;;;16.27;9.37;;;;;;;6.46;64.69;97481.75;5047478;28;20197;-70
2021/12/17 08:57:40;;;;;;;19.47;11.37;;;;;;;6.41;64.98;97486.16;5047007;28;20201;-72
2021/12/17 09:00:10;;;;;;;21.73;11.60;;;;;;;6.22;65.27;97453.16;5047620;28;20498;-71
2021/12/17 09:02:48;;;;;;;17.20;11.33;;;;;;;6.56;64.76;97467.81;5047191;28;20189;-68
2021/12/17 09:05:43;;;;;;;21.23;11.37;;;;;;;6.64;64.43;97465.03;5045916;28;20649;-71
2021/12/17 09:08:14;;;;;;;17.07;9.20;;;;;;;6.80;63.06;97455.25;5047667;28;20219;-70
2021/12/17 09:10:48;;;;;;;23.27;11.60;;;;;;;6.88;62.58;97453.31;5063246;28;20573;-71
2021/12/17 09:13:17;;;;;;;23.63;14.27;;;;;;;6.94;63.25;97440.31;5047175;28;20209;-70
2021/12/17 09:15:46;;;;;;;22.33;12.10;;;;;;;7.05;62.39;97435.72;5047182;28;20673;-70
2021/12/17 09:18:28;;;;;;;16.23;10.20;;;;;;;7.08;62.67;97430.50;5063373;28;20201;-67
2021/12/17 09:21:05;;;;;;;11.77;7.00;;;;;;;7.07;61.34;97428.78;5047743;28;20254;-71
2021/12/17 09:23:58;;;;;;;16.73;8.97;;;;;;;6.97;61.24;97425.63;5046988;28;20204;-70
2021/12/17 09:26:32;;;;;;;13.87;7.30;;;;;;;7.05;61.04;97421.09;5047022;28;20277;-72
2021/12/17 09:29:01;;;;;;;12.57;6.73;;;;;;;6.88;61.27;97412.16;5064035;28;20632;-71
2021/12/17 09:31:28;;;;;;;12.70;7.60;;;;;;;6.83;61.59;97413.97;5047513;28;20206;-70
2021/12/17 09:33:56;;;;;;;10.70;5.07;;;;;;;6.95;62.15;97409.38;5048290;28;20296;-73
2021/12/17 09:36:23;;;;;;;3.00;2.17;;;;;;;6.87;65.68;97408.72;5047789;28;20215;-70
2021/12/17 09:38:52;;;;;;;4.23;2.57;;;;;;;6.77;66.75;97393.53;5046725;28;20250;-68
2021/12/17 09:41:22;;;;;;;5.13;2.70;;;;;;;6.76;66.58;97391.88;5047419;28;20209;-69
2021/12/17 09:43:49;;;;;;;2.83;2.10;;;;;;;6.75;66.31;97385.00;5046384;28;20251;-68
2021/12/17 09:46:17;;;;;;;3.17;2.23;;;;;;;6.75;66.25;97385.00;5047524;28;20227;-69
2021/12/17 09:48:47;;;;;;;2.73;1.83;;;;;;;6.76;66.63;97381.56;5047074;28;20201;-68
2021/12/17 09:51:16;;;;;;;1.83;1.57;;;;;;;6.81;66.21;97379.72;5047819;28;20192;-70
2021/12/17 09:53:43;;;;;;;6.27;2.23;;;;;;;6.81;66.96;97370.25;5045412;28;20209;-71
2021/12/17 09:56:10;;;;;;;4.37;3.00;;;;;;;6.94;67.11;97371.66;5047275;28;20573;-69
2021/12/17 09:58:37;;;;;;;8.83;4.73;;;;;;;7.09;65.75;97372.97;5046825;28;20291;-70
2021/12/17 10:01:05;;;;;;;8.53;6.00;;;;;;;7.11;63.42;97363.47;5046482;28;20789;-69
2021/12/17 10:03:32;;;;;;;14.03;5.70;;;;;;;7.12;62.40;97371.16;5047042;28;20637;-72
2021/12/17 10:05:59;;;;;;;8.37;5.57;;;;;;;7.16;62.22;97364.19;5061798;28;20217;-71
2021/12/17 10:08:27;;;;;;;14.70;5.60;;;;;;;7.12;61.77;97362.56;5047081;28;20205;-72
2021/12/17 10:10:57;;;;;;;14.10;7.83;;;;;;;7.25;60.62;97366.50;5046464;28;20196;-71
2021/12/17 10:13:30;;;;;;;13.20;7.90;;;;;;;7.33;59.73;97356.84;5047133;28;20490;-71
2021/12/17 10:16:06;;;;;;;16.10;7.73;;;;;;;7.39;59.88;97347.22;5046468;28;20209;-71
2021/12/17 10:18:40;;;;;;;11.10;7.50;;;;;;;7.36;60.07;97343.84;5046485;28;20258;-73
2021/12/17 10:21:24;;;;;;;11.07;6.77;;;;;;;7.44;58.94;97351.38;5047032;28;20256;-71
2021/12/17 10:23:53;;;;;;;13.40;5.90;;;;;;;7.38;58.70;97334.34;5044998;28;20203;-71
2021/12/17 10:26:22;;;;;;;11.07;6.83;;;;;;;7.51;58.51;97332.28;5046798;28;20261;-72
2021/12/17 10:29:01;;;;;;;10.70;6.50;;;;;;;7.61;59.10;97323.38;5046299;28;20198;-71
2021/12/17 10:31:31;;;;;;;16.43;7.80;;;;;;;7.61;59.39;97308.78;5046288;28;20197;-71
2021/12/17 10:34:01;;;;;;;11.20;7.97;;;;;;;7.74;58.94;97315.25;5046578;28;20193;-70
2021/12/17 10:36:41;;;;;;;10.93;7.37;;;;;;;7.84;58.07;97306.34;5045668;28;20236;-71
2021/12/17 10:39:29;;;;;;;9.70;5.30;;;;;;;7.89;58.87;97304.44;5046727;28;20217;-69
2021/12/17 10:41:57;;;;;;;9.37;5.43;;;;;;;7.89;59.30;97301.88;5061535;28;20736;-70
2021/12/17 10:44:24;;;;;;;9.13;5.60;;;;;;;7.72;58.83;97305.88;5045068;28;20193;-71
2021/12/17 10:47:15;;;;;;;8.60;5.37;;;;;;;7.80;59.52;97288.44;5045234;28;20695;-70
2021/12/17 10:49:55;;;;;;;7.83;3.87;;;;;;;7.76;59.31;97295.44;5060811;28;20209;-69
2021/12/17 10:52:30;;;;;;;4.93;3.47;;;;;;;7.81;58.89;97285.81;5044563;28;20680;-70
2021/12/17 10:55:26;;;;;;;6.00;2.80;;;;;;;7.81;59.69;97282.41;5044078;28;20189;-69
2021/12/17 10:57:59;;;;;;;3.07;2.77;;;;;;;7.76;58.14;97282.53;5045202;28;20266;-70
2021/12/17 11:00:26;;;;;;;4.97;3.07;;;;;;;7.64;58.61;97282.91;5046060;28;20866;-72
2021/12/17 11:02:55;;;;;;;4.23;3.00;;;;;;;7.47;59.28;97267.13;5045761;28;20337;-70
2021/12/17 11:05:23;;;;;;;7.40;4.07;;;;;;;7.59;59.29;97269.31;5044878;28;20270;-70
2021/12/17 11:07:51;;;;;;;8.33;4.33;;;;;;;7.51;60.44;97260.97;5045915;28;20197;-69
2021/12/17 11:10:31;;;;;;;10.00;5.27;;;;;;;7.65;60.15;97268.28;5046104;28;20194;-68
2021/12/17 11:12:59;;;;;;;7.53;3.13;;;;;;;7.28;60.70;97268.53;5046504;28;20234;-69
2021/12/17 11:15:30;;;;;;;11.83;5.30;;;;;;;7.16;60.38;97220.81;5045655;28;20685;-70
2021/12/17 11:18:04;;;;;;;6.30;4.77;;;;;;;7.47;60.73;97261.97;5046368;28;20190;-70
2021/12/17 11:20:37;;;;;;;10.27;5.00;;;;;;;7.39;59.05;97258.78;5045839;28;20309;-71
2021/12/17 11:23:10;;;;;;;9.37;4.90;;;;;;;7.50;59.96;97254.13;5044070;28;20243;-70
2021/12/17 11:25:40;;;;;;;7.73;4.80;;;;;;;7.55;58.93;97254.00;5045842;28;20182;-70
2021/12/17 11:28:09;;;;;;;11.57;4.23;;;;;;;7.59;59.63;97258.16;5045472;28;20537;-70
2021/12/17 11:30:39;;;;;;;6.97;3.83;;;;;;;7.50;59.22;97253.31;5046375;28;20205;-69
2021/12/17 11:33:07;;;;;;;4.50;3.60;;;;;;;7.49;59.71;97254.19;5044239;28;20216;-69
2021/12/17 11:35:37;;;;;;;8.13;4.67;;;;;;;7.47;58.88;97243.94;5044274;28;20625;-74
2021/12/17 11:38:11;;;;;;;7.73;4.67;;;;;;;7.50;58.50;97251.53;5043987;28;20197;-70
2021/12/17 11:40:52;;;;;;;8.33;4.63;;;;;;;7.48;59.48;97255.09;5045936;28;20668;-71
2021/12/17 11:43:48;;;;;;;12.30;5.67;;;;;;;7.51;60.30;97250.66;5046090;28;20237;-70
2021/12/17 11:46:18;;;;;;;14.13;7.30;;;;;;;7.51;59.46;97250.66;5045242;28;20287;-71
2021/12/17 11:49:11;;;;;;;13.07;7.10;;;;;;;7.36;58.82;97230.50;5045397;28;20297;-72
2021/12/17 11:51:39;;;;;;;17.20;7.50;;;;;;;7.53;60.47;97253.19;5045507;28;20534;-69
2021/12/17 11:54:10;;;;;;;14.80;6.57;;;;;;;7.56;59.73;97250.53;5045281;28;20271;-71
2021/12/17 11:56:54;;;;;;;10.63;6.63;;;;;;;7.20;59.65;97212.09;5046059;28;20974;-72
2021/12/17 11:59:24;;;;;;;13.13;7.77;;;;;;;7.40;59.34;97245.84;5045520;28;20225;-70
2021/12/17 12:02:14;;;;;;;9.93;6.37;;;;;;;7.37;58.49;97258.81;5045661;28;20197;-70
2021/12/17 12:04:45;;;;;;;13.80;8.37;;;;;;;7.34;58.99;97252.91;5045816;28;20606;-70
2021/12/17 12:07:19;;;;;;;18.30;8.77;;;;;;;7.30;60.29;97259.03;5048370;28;20771;-70
2021/12/17 12:09:56;;;;;;;17.00;10.00;;;;;;;7.30;60.21;97264.19;5050186;28;20194;-70
2021/12/17 12:12:28;;;;;;;19.07;8.23;;;;;;;7.36;60.38;97251.97;5048008;28;20707;-70
2021/12/17 12:15:22;;;;;;;13.17;6.47;;;;;;;7.13;61.43;97246.66;5049171;28;20268;-70
2021/12/17 12:18:08;;;;;;;21.97;10.70;;;;;;;7.19;60.55;97243.06;5031517;28;20287;-69
2021/12/17 12:20:44;;;;;;;28.03;16.00;;;;;;;7.20;61.56;97250.75;5047715;28;20240;-70
2021/12/17 12:23:31;;;;;;;17.23;9.60;;;;;;;7.23;62.16;97229.22;5048771;28;20254;-71
2021/12/17 12:26:01;;;;;;;10.60;6.10;;;;;;;7.31;61.83;97225.53;5047843;28;22180;-69
2021/12/17 12:28:46;;;;;;;7.10;4.37;;;;;;;7.23;62.53;97224.06;5049023;28;20206;-71
2021/12/17 12:31:31;;;;;;;8.20;4.00;;;;;;;7.11;64.76;97227.81;5049393;28;20188;-71
2021/12/17 12:34:05;;;;;;;7.83;4.53;;;;;;;7.10;65.80;97228.72;5048890;28;20190;-70
2021/12/17 12:36:56;;;;;;;6.33;4.37;;;;;;;7.06;66.10;97216.84;5048861;28;20567;-71
2021/12/17 12:39:24;;;;;;;8.03;4.60;;;;;;;7.00;67.20;97221.31;5049029;28;20757;-73
2021/12/17 12:42:19;;;;;;;8.00;5.33;;;;;;;6.97;68.60;97221.38;5048492;28;20224;-66
2021/12/17 12:44:47;;;;;;;13.17;6.10;;;;;;;7.10;68.46;97227.88;5048374;28;20184;-68
2021/12/17 12:47:26;;;;;;;14.03;7.03;;;;;;;7.09;68.01;97226.19;5048309;28;20239;-66
2021/12/17 12:50:03;;;;;;;6.43;4.30;;;;;;;7.10;67.41;97230.44;5047045;28;20215;-69
2021/12/17 12:52:31;;;;;;;15.23;9.53;;;;;;;6.88;68.65;97224.25;5049171;28;20235;-68
2021/12/17 12:55:04;;;;;;;5.13;3.43;;;;;;;6.72;69.36;97210.94;5048270;28;20199;-65
2021/12/17 12:57:39;;;;;;;5.37;3.00;;;;;;;6.64;69.71;97223.16;5048747;28;20241;-69
2021/12/17 13:00:13;;;;;;;2.47;2.23;;;;;;;6.55;70.83;97228.59;5063748;28;20196;-68
2021/12/17 13:02:42;;;;;;;6.13;3.63;;;;;;;6.47;70.12;97226.19;5030581;28;20307;-68
2021/12/17 13:05:11;;;;;;;5.23;3.17;;;;;;;6.45;70.25;97222.00;5049402;28;20222;-72
2021/12/17 13:07:47;;;;;;;6.40;3.97;;;;;;;6.50;71.02;97226.13;5048072;28;20207;-71
2021/12/17 13:10:17;;;;;;;4.43;2.93;;;;;;;6.51;69.82;97219.25;5048989;28;20187;-72
2021/12/17 13:13:10;;;;;;;7.60;3.50;;;;;;;6.48;69.81;97217.63;5047464;28;20638;-68
2021/12/17 13:23:22;;;;;;;5.37;3.93;;;;;;;6.56;70.10;97202.81;5047155;28;20192;-66
2021/12/17 13:26:04;;;;;;;7.77;4.30;;;;;;;6.67;69.90;97204.25;5046735;28;20213;-70
2021/12/17 13:28:52;;;;;;;3.80;2.77;;;;;;;6.56;69.21;97194.25;5048141;28;20224;-69
2021/12/17 13:31:32;;;;;;;3.47;2.70;;;;;;;6.46;69.28;97191.09;5048612;28;20192;-68
2021/12/17 13:33:59;;;;;;;2.63;2.00;;;;;;;6.45;69.53;97197.09;5048081;28;20213;-67
2021/12/17 13:36:26;;;;;;;8.07;4.00;;;;;;;6.30;69.70;97201.81;5048060;28;20235;-69
2021/12/17 13:38:56;;;;;;;5.00;3.27;;;;;;;6.27;68.26;97201.88;5047987;28;20216;-68
2021/12/17 13:41:53;;;;;;;11.50;5.70;;;;;;;6.26;68.79;97213.06;5048070;28;20234;-68
2021/12/17 13:44:42;;;;;;;7.80;4.67;;;;;;;6.19;68.66;97224.38;5047806;28;20578;-68
2021/12/17 13:47:10;;;;;;;2.20;1.87;;;;;;;6.16;69.61;97219.34;5047994;28;20235;-67
2021/12/17 13:49:39;;;;;;;3.90;2.87;;;;;;;6.10;70.59;97219.50;5047660;28;20199;-69
2021/12/17 13:52:06;;;;;;;2.53;2.10;;;;;;;6.01;70.27;97206.88;5048191;28;20215;-68
2021/12/17 13:54:34;;;;;;;2.33;2.00;;;;;;;5.92;71.44;97205.38;5047790;28;20810;-66
2021/12/17 13:57:04;;;;;;;5.97;3.30;;;;;;;5.93;70.41;97207.06;5048367;28;20183;-67
2021/12/17 13:59:36;;;;;;;2.87;1.90;;;;;;;5.89;70.15;97205.47;5047828;28;20275;-69
2021/12/17 14:02:23;;;;;;;5.23;3.27;;;;;;;5.83;70.91;97215.84;5047746;28;20290;-69
2021/12/17 14:05:08;;;;;;;2.70;2.10;;;;;;;5.78;71.33;97210.81;5047941;28;20194;-68
2021/12/17 14:07:38;;;;;;;4.37;2.63;;;;;;;5.69;72.60;97203.31;5047575;28;21159;-68
2021/12/17 14:10:20;;;;;;;3.67;2.87;;;;;;;5.68;73.15;97213.66;5047949;28;20261;-67
2021/12/17 14:12:48;;;;;;;6.73;2.43;;;;;;;5.63;73.79;97202.63;5047331;28;20274;-69
2021/12/17 14:15:35;;;;;;;3.47;2.67;;;;;;;5.63;73.49;97207.75;5045820;28;20186;-69
2021/12/17 14:18:07;;;;;;;1.83;1.50;;;;;;;5.60;72.28;97215.56;5047535;28;20308;-67
2021/12/17 14:20:40;;;;;;;2.17;1.93;;;;;;;5.60;71.96;97213.00;5047005;28;20226;-66
2021/12/17 14:23:14;;;;;;;2.57;1.93;;;;;;;5.66;71.04;97217.97;5047706;28;20278;-68
2021/12/17 14:25:44;;;;;;;2.40;2.00;;;;;;;5.62;71.59;97221.50;5047178;28;20327;-64
2021/12/17 14:28:21;;;;;;;2.27;1.57;;;;;;;5.55;71.34;97219.94;5046536;28;20279;-66
2021/12/17 14:31:00;;;;;;;2.20;1.87;;;;;;;5.52;71.71;97228.56;5045447;28;20209;-70
2021/12/17 14:33:42;;;;;;;6.10;2.70;;;;;;;5.43;71.92;97217.66;5046506;28;20512;-70
2021/12/17 14:36:12;;;;;;;9.63;4.43;;;;;;;5.47;72.21;97227.84;5047090;28;20210;-67
2021/12/17 14:38:55;;;;;;;7.37;4.10;;;;;;;5.48;70.52;97226.13;5047224;28;20249;-68
2021/12/17 14:41:29;;;;;;;3.70;2.73;;;;;;;5.46;71.01;97226.13;5046809;28;20655;-65
2021/12/17 14:44:11;;;;;;;8.13;3.87;;;;;;;5.58;71.31;97230.16;5047165;28;20240;-69
2021/12/17 14:46:51;;;;;;;6.30;4.40;;;;;;;5.62;71.15;97222.34;5046458;28;20256;-70
2021/12/17 14:57:19;;;;;;;6.93;3.97;;;;;;;5.59;70.26;97222.41;5047006;28;20282;-70
2021/12/17 15:00:31;;;;;;;4.97;3.53;;;;;;;5.42;71.54;97218.56;5047137;28;20571;-69
2021/12/17 15:03:51;;;;;;;6.50;3.63;;;;;;;5.37;71.68;97212.66;5046487;28;20198;-67